createdAt,value
2022-10-22T00:02:19.886Z,7.95
2022-10-22T00:04:50.930Z,8.10
2022-10-22T00:07:21.667Z,8.32
2022-10-22T00:09:54.396Z,10.35
2022-10-22T00:12:24.716Z,9.48
2022-10-22T00:14:54.804Z,9.15
2022-10-22T00:17:24.886Z,7.75
2022-10-22T00:19:54.999Z,7.78
2022-10-22T00:22:25.129Z,6.90
2022-10-22T00:24:57.861Z,8.93
2022-10-22T00:27:27.886Z,6.97
2022-10-22T00:29:57.900Z,9.15
2022-10-22T00:32:27.898Z,7.07
2022-10-22T00:34:57.979Z,9.75
2022-10-22T00:37:28.043Z,7.57
2022-10-22T00:40:00.773Z,9.10
2022-10-22T00:42:32.277Z,7.35
2022-10-22T00:45:26.525Z,10.80
2022-10-22T00:48:00.583Z,7.95
2022-10-22T00:50:34.667Z,7.63
2022-10-22T00:55:38.577Z,7.32
2022-10-22T00:58:08.943Z,8.20
2022-10-22T01:00:39.066Z,10.90
2022-10-22T01:03:09.786Z,9.98
2022-10-22T01:05:45.686Z,11.27
2022-10-22T01:08:26.342Z,8.07
2022-10-22T01:11:09.773Z,8.43
2022-10-22T01:13:52.249Z,10.27
2022-10-22T01:16:30.557Z,8.82
2022-10-22T01:19:09.559Z,8.93
2022-10-22T01:21:44.787Z,8.55
2022-10-22T01:24:36.571Z,7.82
2022-10-22T01:27:28.935Z,7.82
2022-10-22T01:30:05.400Z,8.45
2022-10-22T01:32:41.745Z,8.90
2022-10-22T01:35:15.204Z,8.40
2022-10-22T01:37:49.422Z,8.20
2022-10-22T01:40:20.464Z,7.78
2022-10-22T01:43:01.538Z,11.07
2022-10-22T01:45:39.121Z,9.70
2022-10-22T01:48:25.632Z,12.80
2022-10-22T01:51:08.586Z,8.80
2022-10-22T01:53:48.232Z,9.73
2022-10-22T01:56:36.311Z,9.50
2022-10-22T01:59:12.046Z,11.07
2022-10-22T02:01:53.495Z,10.55
2022-10-22T02:04:29.188Z,10.60
2022-10-22T02:07:04.746Z,9.60
2022-10-22T02:09:35.793Z,11.48
2022-10-22T02:12:10.096Z,10.85
2022-10-22T02:14:44.099Z,10.55
2022-10-22T02:17:21.139Z,11.88
2022-10-22T02:19:56.776Z,11.27
2022-10-22T02:22:28.018Z,8.90
2022-10-22T02:24:58.911Z,10.35
2022-10-22T02:27:33.694Z,11.68
2022-10-22T02:30:08.120Z,9.82
2022-10-22T02:32:45.068Z,10.45
2022-10-22T02:35:20.182Z,11.88
2022-10-22T02:37:51.077Z,9.82
2022-10-22T02:40:22.559Z,11.85
2022-10-22T02:42:53.652Z,10.20
2022-10-22T02:45:24.353Z,10.70
2022-10-22T02:47:56.968Z,10.77
2022-10-22T02:50:27.033Z,11.10
2022-10-22T02:52:57.044Z,10.13
2022-10-22T02:55:27.075Z,10.45
2022-10-22T02:57:57.254Z,9.18
2022-10-22T03:00:27.386Z,11.00
2022-10-22T03:03:00.013Z,12.88
2022-10-22T03:05:30.138Z,11.07
2022-10-22T03:08:00.093Z,13.38
2022-10-22T03:10:30.314Z,10.50
2022-10-22T03:13:00.586Z,15.00
2022-10-22T03:15:30.678Z,12.82
2022-10-22T03:18:03.479Z,12.40
2022-10-22T03:20:33.933Z,11.40
2022-10-22T03:23:05.306Z,11.95
2022-10-22T03:25:35.804Z,13.45
2022-10-22T03:28:09.941Z,15.52
2022-10-22T03:30:40.038Z,12.00
2022-10-22T03:33:12.616Z,13.18
2022-10-22T03:35:49.346Z,10.63
2022-10-22T03:38:19.529Z,13.27
2022-10-22T03:40:50.225Z,11.93
2022-10-22T03:43:20.467Z,12.98
2022-10-22T03:45:50.542Z,13.23
2022-10-22T03:48:23.172Z,13.20
2022-10-22T03:50:53.426Z,13.10
2022-10-22T03:53:23.425Z,12.02
2022-10-22T03:55:53.637Z,11.10
2022-10-22T03:58:23.720Z,12.05
2022-10-22T04:00:53.943Z,12.18
2022-10-22T04:03:26.689Z,11.35
2022-10-22T04:05:56.668Z,10.15
2022-10-22T04:08:26.821Z,11.40
2022-10-22T04:10:56.829Z,12.55
2022-10-22T04:13:27.030Z,10.82
2022-10-22T04:15:57.216Z,10.30
2022-10-22T04:18:29.834Z,13.50
2022-10-22T04:20:59.888Z,10.50
2022-10-22T04:23:29.872Z,11.82
2022-10-22T04:26:01.864Z,11.05
2022-10-22T04:28:32.193Z,13.70
2022-10-22T04:31:02.417Z,11.63
2022-10-22T04:33:35.067Z,12.40
2022-10-22T04:36:09.839Z,11.55
2022-10-22T04:38:40.174Z,12.93
2022-10-22T04:41:14.927Z,12.25
2022-10-22T04:43:45.953Z,12.63
2022-10-22T04:46:17.210Z,12.50
2022-10-22T04:48:50.248Z,11.35
2022-10-22T04:51:23.124Z,13.90
2022-10-22T04:53:53.820Z,15.35
2022-10-22T04:56:25.572Z,11.77
2022-10-22T04:58:57.760Z,13.95
2022-10-22T05:01:29.584Z,11.63
2022-10-22T05:04:04.433Z,12.52
2022-10-22T05:06:35.323Z,15.75
2022-10-22T05:09:07.664Z,12.63
2022-10-22T05:11:41.655Z,12.80
2022-10-22T05:16:42.030Z,13.35
2022-10-22T05:19:20.738Z,13.23
2022-10-22T05:21:50.816Z,13.30
2022-10-22T05:24:21.170Z,15.85
2022-10-22T05:26:52.618Z,11.13
2022-10-22T05:29:23.828Z,13.13
2022-10-22T05:31:53.953Z,12.35
2022-10-22T05:34:26.607Z,13.82
2022-10-22T05:36:56.673Z,15.00
2022-10-22T05:39:26.650Z,15.10
2022-10-22T05:41:56.814Z,10.35
2022-10-22T05:44:26.849Z,14.30
2022-10-22T05:46:56.945Z,12.90
2022-10-22T05:49:29.530Z,17.42
2022-10-22T05:51:59.583Z,14.90
2022-10-22T05:54:29.625Z,11.93
2022-10-22T05:57:00.037Z,13.02
2022-10-22T05:59:30.056Z,11.77
2022-10-22T06:02:00.281Z,12.45
2022-10-22T06:04:32.968Z,12.57
2022-10-22T06:07:03.049Z,10.73
2022-10-22T06:12:27.934Z,14.23
2022-10-22T06:14:58.026Z,11.80
2022-10-22T06:17:29.528Z,11.40
2022-10-22T06:20:02.413Z,13.75
2022-10-22T06:22:32.856Z,12.35
2022-10-22T06:25:02.921Z,12.30
2022-10-22T06:27:32.893Z,11.80
2022-10-22T06:30:03.465Z,12.13
2022-10-22T06:32:34.588Z,15.82
2022-10-22T06:35:08.002Z,10.00
2022-10-22T06:37:38.289Z,11.60
2022-10-22T06:40:11.198Z,11.05
2022-10-22T06:42:41.437Z,12.77
2022-10-22T06:45:13.654Z,14.25
2022-10-22T06:47:43.840Z,10.60
2022-10-22T06:50:16.864Z,13.40
2022-10-22T06:52:46.888Z,13.65
2022-10-22T06:55:17.067Z,10.15
2022-10-22T06:57:47.598Z,9.52
2022-10-22T07:00:17.994Z,10.57
2022-10-22T07:02:56.472Z,10.43
2022-10-22T07:05:31.794Z,8.90
2022-10-22T07:08:01.859Z,10.63
2022-10-22T07:10:32.038Z,14.05
2022-10-22T07:13:02.549Z,10.57
2022-10-22T07:15:32.689Z,10.38
2022-10-22T07:18:04.793Z,12.82
2022-10-22T07:20:37.503Z,10.93
2022-10-22T07:23:07.698Z,11.75
2022-10-22T07:25:37.762Z,11.80
2022-10-22T07:28:08.199Z,12.18
2022-10-22T07:30:39.679Z,12.05
2022-10-22T07:33:11.048Z,13.05
2022-10-22T07:35:44.616Z,15.95
2022-10-22T07:38:14.625Z,11.77
2022-10-22T07:40:44.688Z,10.98
2022-10-22T07:43:17.454Z,14.68
2022-10-22T07:45:47.844Z,11.02
2022-10-22T07:48:18.199Z,13.90
2022-10-22T07:50:52.165Z,15.43
2022-10-22T07:53:22.566Z,10.90
2022-10-22T07:55:53.162Z,11.45
2022-10-22T07:58:24.748Z,12.23
2022-10-22T08:00:58.620Z,12.77
2022-10-22T08:06:01.275Z,12.00
2022-10-22T08:08:33.528Z,12.43
2022-10-22T08:11:04.597Z,15.48
2022-10-22T08:13:34.593Z,11.82
2022-10-22T08:16:05.055Z,15.10
2022-10-22T08:18:35.205Z,12.75
2022-10-22T08:21:08.478Z,10.75
2022-10-22T08:23:38.714Z,12.98
2022-10-22T08:26:09.110Z,13.02
2022-10-22T08:28:39.761Z,12.30
2022-10-22T08:31:11.030Z,12.52
2022-10-22T08:33:42.141Z,14.32
2022-10-22T08:36:14.936Z,11.60
2022-10-22T08:38:44.972Z,17.10
2022-10-22T08:41:17.004Z,12.68
2022-10-22T08:44:16.821Z,13.15
2022-10-22T08:46:59.372Z,12.38
2022-10-22T08:49:34.248Z,14.65
2022-10-22T08:52:08.972Z,11.75
2022-10-22T08:54:50.357Z,11.27
2022-10-22T09:00:25.101Z,13.52
2022-10-22T09:03:10.515Z,12.77
2022-10-22T09:05:49.238Z,14.35
2022-10-22T09:08:23.365Z,13.07
2022-10-22T09:10:58.431Z,13.02
2022-10-22T09:13:28.533Z,12.98
2022-10-22T09:16:02.146Z,12.70
2022-10-22T09:21:19.810Z,11.68
2022-10-22T09:24:07.429Z,11.15
2022-10-22T09:26:40.723Z,15.73
2022-10-22T09:29:16.728Z,14.23
2022-10-22T09:31:47.426Z,13.32
2022-10-22T09:34:18.654Z,17.63
2022-10-22T09:36:49.289Z,14.90
2022-10-22T09:39:30.771Z,15.40
2022-10-22T09:42:00.847Z,13.57
2022-10-22T09:44:30.987Z,13.70
2022-10-22T09:47:00.993Z,12.77
2022-10-22T09:49:35.896Z,14.98
2022-10-22T09:52:06.322Z,12.98
2022-10-22T09:54:45.826Z,13.57
2022-10-22T09:57:21.650Z,19.17
2022-10-22T09:59:54.188Z,13.55
2022-10-22T10:02:38.261Z,12.50
2022-10-22T10:05:11.484Z,11.70
2022-10-22T10:07:41.685Z,12.35
2022-10-22T10:10:22.913Z,10.60
2022-10-22T10:13:00.150Z,14.30
2022-10-22T10:15:36.828Z,14.38
2022-10-22T10:18:20.718Z,14.93
2022-10-22T10:20:59.949Z,13.60
2022-10-22T10:23:38.021Z,11.82
2022-10-22T10:26:16.661Z,13.43
2022-10-22T10:29:17.073Z,14.80
2022-10-22T10:32:01.419Z,14.85
2022-10-22T10:37:21.794Z,12.70
2022-10-22T10:40:06.130Z,15.68
2022-10-22T10:42:45.192Z,12.88
2022-10-22T10:45:23.190Z,16.50
2022-10-22T10:48:06.222Z,14.43
2022-10-22T10:50:46.637Z,12.50
2022-10-22T10:53:24.711Z,13.90
2022-10-22T10:56:04.654Z,11.38
2022-10-22T10:58:48.154Z,12.70
2022-10-22T11:01:27.547Z,12.47
2022-10-22T11:04:29.639Z,17.42
2022-10-22T11:07:11.581Z,13.40
2022-10-22T11:09:54.043Z,15.48
2022-10-22T11:12:29.328Z,13.02
2022-10-22T11:15:10.070Z,14.02
2022-10-22T11:17:44.008Z,13.60
2022-10-22T11:20:20.656Z,14.77
2022-10-22T11:23:17.353Z,17.55
2022-10-22T11:25:48.397Z,13.68
2022-10-22T11:28:24.062Z,12.85
2022-10-22T11:31:03.024Z,16.48
2022-10-22T11:33:43.743Z,14.63
2022-10-22T11:36:15.286Z,13.45
2022-10-22T11:38:45.492Z,15.68
2022-10-22T11:41:19.071Z,18.05
2022-10-22T11:44:00.596Z,14.93
2022-10-22T11:46:43.002Z,16.52
2022-10-22T11:49:28.044Z,13.73
2022-10-22T11:52:27.075Z,17.48
2022-10-22T11:54:59.164Z,16.25
2022-10-22T11:57:32.747Z,16.33
2022-10-22T12:02:46.876Z,14.98
2022-10-22T12:05:36.382Z,20.00
2022-10-22T12:08:28.794Z,16.85
2022-10-22T12:11:05.781Z,16.20
2022-10-22T12:13:53.779Z,16.92
2022-10-22T12:16:43.942Z,13.63
2022-10-22T12:19:27.100Z,14.93
2022-10-22T12:21:59.281Z,16.40
2022-10-22T12:24:34.967Z,14.75
2022-10-22T12:27:08.210Z,14.00
2022-10-22T12:32:09.074Z,14.65
2022-10-22T12:37:21.359Z,21.08
2022-10-22T12:39:51.468Z,17.15
2022-10-22T12:42:23.884Z,18.52
2022-10-22T12:44:58.926Z,18.90
2022-10-22T12:47:28.994Z,16.95
2022-10-22T12:50:03.271Z,14.45
2022-10-22T12:52:34.008Z,13.32
2022-10-22T12:55:04.104Z,13.68
2022-10-22T12:57:34.198Z,18.02
2022-10-22T13:00:04.540Z,17.27
2022-10-22T13:02:34.657Z,14.68
2022-10-22T13:05:20.689Z,17.67
2022-10-22T13:07:52.930Z,19.40
2022-10-22T13:10:27.949Z,20.92
2022-10-22T13:13:03.330Z,16.38
2022-10-22T13:15:39.945Z,18.10
2022-10-22T13:18:20.650Z,15.80
2022-10-22T13:20:59.008Z,18.42
2022-10-22T13:23:33.924Z,14.52
2022-10-22T13:26:06.901Z,14.38
2022-10-22T13:28:37.025Z,19.53
2022-10-22T13:31:14.734Z,16.20
2022-10-22T13:33:48.173Z,13.73
2022-10-22T13:36:21.314Z,15.15
2022-10-22T13:38:51.553Z,18.80
2022-10-22T13:41:22.750Z,18.40
2022-10-22T13:43:53.535Z,17.10
2022-10-22T13:46:24.389Z,17.75
2022-10-22T13:48:58.868Z,17.63
2022-10-22T13:51:37.615Z,16.70
2022-10-22T13:54:13.538Z,15.32
2022-10-22T13:56:43.606Z,15.20
2022-10-22T13:59:15.383Z,15.82
2022-10-22T14:01:48.789Z,21.90
2022-10-22T14:04:18.861Z,17.60
2022-10-22T14:06:51.581Z,17.65
2022-10-22T14:09:24.745Z,18.52
2022-10-22T14:11:54.804Z,23.38
2022-10-22T14:14:24.817Z,20.55
2022-10-22T14:16:54.897Z,19.00
2022-10-22T14:19:24.966Z,24.50
2022-10-22T14:21:57.599Z,19.30
2022-10-22T14:24:27.698Z,18.38
2022-10-22T14:27:00.640Z,18.17
2022-10-22T14:29:30.707Z,18.30
2022-10-22T14:32:02.891Z,15.38
2022-10-22T14:34:33.023Z,21.63
2022-10-22T14:37:06.031Z,19.77
2022-10-22T14:39:36.071Z,19.48
2022-10-22T14:42:06.221Z,19.85
2022-10-22T14:44:36.231Z,19.75
2022-10-22T14:47:06.346Z,16.75
2022-10-22T14:49:36.928Z,15.05
2022-10-22T14:52:11.783Z,16.17
2022-10-22T14:54:44.248Z,15.60
2022-10-22T14:57:14.625Z,16.42
2022-10-22T14:59:45.306Z,17.20
2022-10-22T15:02:16.223Z,18.52
2022-10-22T15:04:46.249Z,21.83
2022-10-22T15:07:20.415Z,20.77
2022-10-22T15:09:50.569Z,20.67
2022-10-22T15:12:20.798Z,20.30
2022-10-22T15:14:51.151Z,18.15
2022-10-22T15:17:22.212Z,19.05
2022-10-22T15:19:53.308Z,17.70
2022-10-22T15:22:26.560Z,16.90
2022-10-22T15:24:56.641Z,16.08
2022-10-22T15:27:30.846Z,16.88
2022-10-22T15:32:51.740Z,18.90
2022-10-22T15:35:22.058Z,14.90
2022-10-22T15:37:56.680Z,17.80
2022-10-22T15:40:26.992Z,19.75
2022-10-22T15:42:57.206Z,18.60
2022-10-22T15:45:27.604Z,19.33
2022-10-22T15:47:58.593Z,19.38
2022-10-22T15:50:29.485Z,15.57
2022-10-22T15:53:04.702Z,17.92
2022-10-22T15:55:35.018Z,42.55
2022-10-22T15:58:05.296Z,26.52
2022-10-22T16:00:38.763Z,24.10
2022-10-22T16:03:11.925Z,27.90
2022-10-22T16:05:54.641Z,27.58
2022-10-22T16:08:28.058Z,20.90
2022-10-22T16:10:58.720Z,22.15
2022-10-22T16:13:29.226Z,19.83
2022-10-22T16:15:59.418Z,19.25
2022-10-22T16:18:31.007Z,17.25
2022-10-22T16:21:01.872Z,19.42
2022-10-22T16:23:34.751Z,17.33
2022-10-22T16:26:08.086Z,20.10
2022-10-22T16:28:40.464Z,18.75
2022-10-22T16:31:13.377Z,20.70
2022-10-22T16:33:49.968Z,22.85
2022-10-22T16:36:22.551Z,24.02
2022-10-22T16:38:56.485Z,24.00
2022-10-22T16:41:35.424Z,22.25
2022-10-22T16:44:09.259Z,23.02
2022-10-22T16:46:40.822Z,26.75
2022-10-22T16:49:11.427Z,19.35
2022-10-22T16:51:42.718Z,19.10
2022-10-22T16:54:18.587Z,20.67
2022-10-22T16:56:52.197Z,20.67
2022-10-22T16:59:25.385Z,22.48
2022-10-22T17:02:00.632Z,19.17
2022-10-22T17:04:33.509Z,21.27
2022-10-22T17:07:04.147Z,24.58
2022-10-22T17:09:37.153Z,18.80
2022-10-22T17:12:10.511Z,21.70
2022-10-22T17:14:41.028Z,22.45
2022-10-22T17:17:11.728Z,19.92
2022-10-22T17:19:46.616Z,22.58
2022-10-22T17:22:27.449Z,24.65
2022-10-22T17:25:15.080Z,19.50
2022-10-22T17:27:49.064Z,21.55
2022-10-22T17:30:26.517Z,20.85
2022-10-22T17:32:58.276Z,20.48
2022-10-22T17:35:29.286Z,19.15
2022-10-22T17:37:59.904Z,20.33
2022-10-22T17:40:33.908Z,21.25
2022-10-22T17:43:04.609Z,18.37
2022-10-22T17:45:35.061Z,26.05
2022-10-22T17:48:06.139Z,24.10
2022-10-22T17:50:37.584Z,18.67
2022-10-22T17:53:09.434Z,19.40
2022-10-22T17:55:42.367Z,18.27
2022-10-22T17:58:12.964Z,21.47
2022-10-22T18:00:43.292Z,21.00
2022-10-22T18:03:14.267Z,19.10
2022-10-22T18:05:45.221Z,19.88
2022-10-22T18:08:16.486Z,21.77
2022-10-22T18:10:53.111Z,20.90
2022-10-22T18:13:23.703Z,20.30
2022-10-22T18:15:57.495Z,19.83
2022-10-22T18:18:29.005Z,20.65
2022-10-22T18:21:00.692Z,21.17
2022-10-22T18:23:31.508Z,20.65
2022-10-22T18:26:07.760Z,22.63
2022-10-22T18:28:39.666Z,20.95
2022-10-22T18:31:11.669Z,21.92
2022-10-22T18:33:45.349Z,27.80
2022-10-22T18:36:19.504Z,23.50
2022-10-22T18:38:52.350Z,20.67
2022-10-22T18:41:28.629Z,20.42
2022-10-22T18:44:02.183Z,22.27
2022-10-22T18:46:34.788Z,21.40
2022-10-22T18:49:07.287Z,22.70
2022-10-22T18:51:39.067Z,19.25
2022-10-22T18:54:22.525Z,18.83
2022-10-22T18:57:00.503Z,22.90
2022-10-22T18:59:34.264Z,23.80
2022-10-22T19:02:05.836Z,21.30
2022-10-22T19:04:37.201Z,26.50
2022-10-22T19:09:42.380Z,23.73
2022-10-22T19:12:16.368Z,21.33
2022-10-22T19:14:50.186Z,22.50
2022-10-22T19:17:21.009Z,21.42
2022-10-22T19:19:51.669Z,21.38
2022-10-22T19:22:22.316Z,17.90
2022-10-22T19:24:53.786Z,21.48
2022-10-22T19:27:27.666Z,22.20
2022-10-22T19:29:58.369Z,19.10
2022-10-22T19:32:36.511Z,26.13
2022-10-22T19:37:39.903Z,20.40
2022-10-22T19:40:12.095Z,19.35
2022-10-22T19:42:53.250Z,19.23
2022-10-22T19:45:26.130Z,21.40
2022-10-22T19:47:56.592Z,24.23
2022-10-22T19:50:29.665Z,19.70
2022-10-22T19:53:01.603Z,23.67
2022-10-22T19:55:32.116Z,22.40
2022-10-22T19:58:09.059Z,21.58
2022-10-22T20:00:43.291Z,21.65
2022-10-22T20:05:48.128Z,20.63
2022-10-22T20:08:18.801Z,24.98
2022-10-22T20:10:51.699Z,23.38
2022-10-22T20:13:24.559Z,19.42
2022-10-22T20:15:57.266Z,19.63
2022-10-22T20:18:34.161Z,21.50
2022-10-22T20:21:06.947Z,20.15
2022-10-22T20:23:46.802Z,22.02
2022-10-22T20:26:17.305Z,19.05
2022-10-22T20:28:50.365Z,23.70
2022-10-22T20:31:24.127Z,20.63
2022-10-22T20:33:58.137Z,23.50
2022-10-22T20:36:33.732Z,23.08
2022-10-22T20:39:07.403Z,23.73
2022-10-22T20:41:40.354Z,21.67
2022-10-22T20:44:17.414Z,21.98
2022-10-22T20:46:50.993Z,20.98
2022-10-22T20:49:22.512Z,25.23
2022-10-22T20:51:55.614Z,23.30
2022-10-22T20:54:25.936Z,23.80
2022-10-22T20:56:56.527Z,23.67
2022-10-22T20:59:33.293Z,26.17
2022-10-22T21:02:04.002Z,23.75
2022-10-22T21:04:37.269Z,23.80
2022-10-22T21:07:07.613Z,26.27
2022-10-22T21:09:37.790Z,25.42
2022-10-22T21:12:08.662Z,26.45
2022-10-22T21:14:41.429Z,26.83
2022-10-22T21:17:11.486Z,24.58
2022-10-22T21:19:41.957Z,21.88
2022-10-22T21:22:12.072Z,25.75
2022-10-22T21:24:42.393Z,26.50
2022-10-22T21:27:15.056Z,26.88
2022-10-22T21:29:48.109Z,27.42
2022-10-22T21:32:18.230Z,26.48
2022-10-22T21:34:48.363Z,25.95
2022-10-22T21:37:18.511Z,27.85
2022-10-22T21:39:56.853Z,23.98
2022-10-22T21:42:26.979Z,24.10
2022-10-22T21:44:59.651Z,25.05
2022-10-22T21:47:29.858Z,23.85
2022-10-22T21:49:59.819Z,23.75
2022-10-22T21:52:29.851Z,25.15
2022-10-22T21:54:59.918Z,24.02
2022-10-22T21:57:30.029Z,23.23
2022-10-22T22:00:02.716Z,25.73
2022-10-22T22:02:34.420Z,22.23
2022-10-22T22:05:04.576Z,25.95
2022-10-22T22:07:35.516Z,22.00
2022-10-22T22:10:05.650Z,26.30
2022-10-22T22:12:35.718Z,23.70
2022-10-22T22:15:10.023Z,24.60
2022-10-22T22:17:40.187Z,25.92
2022-10-22T22:20:11.121Z,26.70
2022-10-22T22:22:41.452Z,28.15
2022-10-22T22:25:12.226Z,23.15
2022-10-22T22:27:42.630Z,25.65
2022-10-22T22:30:17.977Z,28.25
2022-10-22T22:32:48.127Z,23.70
2022-10-22T22:35:19.368Z,24.70
2022-10-22T22:37:49.625Z,27.33
2022-10-22T22:40:19.650Z,23.38
2022-10-22T22:42:49.841Z,30.75
2022-10-22T22:45:22.573Z,22.52
2022-10-22T22:47:52.655Z,24.73
2022-10-22T22:50:22.775Z,23.80
2022-10-22T22:52:52.880Z,26.85
2022-10-22T22:55:23.086Z,25.02
2022-10-22T22:57:53.373Z,24.98
2022-10-22T23:00:26.331Z,23.25
2022-10-22T23:02:57.572Z,26.88
2022-10-22T23:05:27.683Z,23.67
2022-10-22T23:07:57.730Z,24.67
2022-10-22T23:10:27.893Z,27.17
2022-10-22T23:12:58.003Z,22.30
2022-10-22T23:15:30.644Z,24.73
2022-10-22T23:18:00.684Z,23.65
2022-10-22T23:20:30.864Z,21.40
2022-10-22T23:23:00.859Z,20.50
2022-10-22T23:25:30.827Z,22.67
2022-10-22T23:28:01.009Z,24.13
2022-10-22T23:30:33.681Z,22.63
2022-10-22T23:33:04.087Z,26.05
2022-10-22T23:35:34.257Z,23.73
2022-10-22T23:38:04.644Z,24.10
2022-10-22T23:40:34.773Z,23.20
2022-10-22T23:43:05.038Z,22.75
2022-10-22T23:45:39.553Z,21.13
2022-10-22T23:48:09.816Z,22.55
2022-10-22T23:50:40.318Z,24.80
2022-10-22T23:53:10.665Z,22.50
2022-10-22T23:55:40.825Z,21.75
2022-10-22T23:58:11.269Z,21.67
